Time;durP1;ratioP1;P1;durP2;ratioP2;P2;SDS_P1;SDS_P2;PMS_P1;PMS_P2;Temp;Humidity;BMP_temperature;BMP_pressure;BME280_temperature;BME280_humidity;BME280_pressure;Samples;Min_cycle;Max_cycle;Signal;HPM_P1;HPM_P2
2024/01/20 00:01:38;;;;;;;41.28;19.42;;;1.00;99.90;;;;;;5038359;28;20037;-85
2024/01/20 00:04:04;;;;;;;33.75;19.15;;;1.90;99.90;;;;;;5046651;28;20036;-84
2024/01/20 00:06:30;;;;;;;37.60;17.75;;;1.00;99.90;;;;;;5039710;28;20033;-85
2024/01/20 00:08:55;;;;;;;35.67;18.58;;;1.00;99.90;;;;;;5039941;28;20036;-86
2024/01/20 00:11:22;;;;;;;31.08;18.40;;;0.90;99.90;;;;;;5041580;28;20061;-86
2024/01/20 00:13:47;;;;;;;39.95;18.73;;;1.00;99.90;;;;;;5048972;28;20033;-86
2024/01/20 00:16:13;;;;;;;39.08;18.98;;;1.00;99.90;;;;;;5048912;28;20032;-85
2024/01/20 00:18:38;;;;;;;37.70;19.15;;;1.00;99.90;;;;;;5048531;28;20021;-85
2024/01/20 00:21:14;;;;;;;43.92;20.42;;;1.00;99.90;;;;;;5049208;28;20040;-85
2024/01/20 00:23:39;;;;;;;32.67;17.33;;;1.00;99.90;;;;;;5036165;28;20085;-85
2024/01/20 00:26:05;;;;;;;35.10;17.98;;;1.00;99.90;;;;;;5048971;28;20407;-85
2024/01/20 00:28:30;;;;;;;42.50;20.67;;;0.90;99.90;;;;;;5039748;28;20036;-85
2024/01/20 00:30:56;;;;;;;40.10;19.55;;;0.90;99.90;;;;;;5043412;28;20024;-86
2024/01/20 00:33:22;;;;;;;40.47;18.85;;;0.90;99.90;;;;;;5049974;28;20083;-86
2024/01/20 00:35:47;;;;;;;43.78;19.02;;;0.90;99.90;;;;;;5050894;28;20021;-85
2024/01/20 00:38:13;;;;;;;39.40;18.90;;;0.90;99.90;;;;;;5052258;28;20025;-86
2024/01/20 00:40:48;;;;;;;35.13;17.90;;;0.90;99.90;;;;;;5054739;28;20029;-85
2024/01/20 00:43:14;;;;;;;40.30;17.85;;;0.80;99.90;;;;;;5055225;28;20032;-85
2024/01/20 00:45:39;;;;;;;37.20;19.90;;;0.80;99.90;;;;;;5054015;28;20032;-86
2024/01/20 00:48:05;;;;;;;42.85;18.60;;;0.80;99.90;;;;;;5043644;28;20039;-85
2024/01/20 00:50:31;;;;;;;44.53;19.40;;;0.70;99.90;;;;;;5043522;28;20060;-85
2024/01/20 00:52:56;;;;;;;41.90;18.92;;;1.80;99.90;;;;;;5051695;28;20452;-85
2024/01/20 00:55:22;;;;;;;42.38;20.08;;;0.70;99.90;;;;;;5052329;28;20384;-85
2024/01/20 00:57:53;;;;;;;49.70;22.48;;;0.70;99.90;;;;;;5054089;28;20028;-86
2024/01/20 01:00:19;;;;;;;41.53;19.77;;;0.60;99.90;;;;;;5054452;28;20143;-86
2024/01/20 01:02:44;;;;;;;45.88;20.88;;;0.60;99.90;;;;;;5054644;28;20135;-84
2024/01/20 01:05:10;;;;;;;47.33;21.17;;;0.60;99.90;;;;;;5055213;28;20029;-84
2024/01/20 01:07:36;;;;;;;42.72;20.08;;;-0.40;99.90;;;;;;5051851;28;20559;-84
2024/01/20 01:10:03;;;;;;;40.63;20.30;;;0.60;99.90;;;;;;5044207;28;20124;-85
2024/01/20 01:12:29;;;;;;;38.00;19.85;;;0.50;99.90;;;;;;5053296;28;20043;-85
2024/01/20 01:14:55;;;;;;;49.28;22.63;;;0.50;99.90;;;;;;5053066;28;20443;-84
2024/01/20 01:17:27;;;;;;;58.03;23.92;;;1.10;99.90;;;;;;5053112;28;20098;-84
2024/01/20 01:19:52;;;;;;;47.92;22.02;;;1.70;99.90;;;;;;5056891;28;20141;-84
2024/01/20 01:22:18;;;;;;;58.47;23.73;;;0.50;99.90;;;;;;5054760;28;20186;-85
2024/01/20 01:24:43;;;;;;;45.00;21.85;;;0.50;99.90;;;;;;5054072;28;20021;-84
2024/01/20 01:27:09;;;;;;;44.83;21.52;;;0.50;99.90;;;;;;5054056;28;20037;-85
2024/01/20 01:29:35;;;;;;;53.78;22.05;;;0.40;99.90;;;;;;5053889;28;20351;-85
2024/01/20 01:32:00;;;;;;;48.97;22.33;;;0.50;99.90;;;;;;5054592;28;20025;-85
2024/01/20 01:34:26;;;;;;;51.65;23.20;;;0.50;99.90;;;;;;5053590;28;20411;-85
2024/01/20 01:36:51;;;;;;;45.53;22.52;;;0.50;99.90;;;;;;5054142;28;20052;-84
2024/01/20 01:39:17;;;;;;;56.55;23.85;;;0.50;99.90;;;;;;5045828;28;20025;-84
2024/01/20 01:41:43;;;;;;;54.92;23.58;;;0.50;99.90;;;;;;5038833;28;20036;-84
2024/01/20 01:44:09;;;;;;;50.38;23.05;;;0.50;99.90;;;;;;5051692;28;20477;-84
2024/01/20 01:46:35;;;;;;;48.22;21.67;;;0.40;99.90;;;;;;5050924;28;20086;-84
2024/01/20 01:49:01;;;;;;;53.83;23.27;;;0.40;99.90;;;;;;5051017;28;20431;-86
2024/01/20 01:51:28;;;;;;;47.13;22.02;;;0.40;99.90;;;;;;5041590;28;20080;-85
2024/01/20 01:53:54;;;;;;;49.65;21.92;;;0.40;99.90;;;;;;5047875;28;20409;-86
2024/01/20 01:56:20;;;;;;;42.95;21.92;;;0.40;99.90;;;;;;5051342;28;20029;-86
2024/01/20 01:58:46;;;;;;;45.30;21.45;;;0.50;99.90;;;;;;5051243;28;20103;-85
2024/01/20 02:01:11;;;;;;;48.28;21.92;;;0.50;99.90;;;;;;5051752;28;20120;-86
2024/01/20 02:03:38;;;;;;;44.45;21.73;;;0.40;99.90;;;;;;5050926;28;20495;-86
2024/01/20 02:06:05;;;;;;;50.00;21.25;;;0.50;99.90;;;;;;5051789;28;20381;-86
2024/01/20 02:08:31;;;;;;;55.67;22.83;;;0.50;99.90;;;;;;5051410;28;20017;-86
2024/01/20 02:10:57;;;;;;;44.05;21.45;;;0.30;99.90;;;;;;5046890;28;20075;-85
2024/01/20 02:13:23;;;;;;;53.00;23.55;;;0.50;99.90;;;;;;5040717;28;20052;-86
2024/01/20 02:15:49;;;;;;;48.65;21.33;;;1.60;99.90;;;;;;5049198;28;20469;-86
2024/01/20 02:18:15;;;;;;;48.40;23.02;;;0.40;99.90;;;;;;5051104;28;20025;-86
2024/01/20 02:20:40;;;;;;;46.58;21.95;;;0.40;99.90;;;;;;5050949;28;20027;-85
2024/01/20 02:23:06;;;;;;;53.17;22.20;;;0.40;99.90;;;;;;5051284;28;20025;-85
2024/01/20 02:25:32;;;;;;;54.15;22.52;;;0.40;99.90;;;;;;5050654;28;20027;-86
2024/01/20 02:27:58;;;;;;;48.42;22.70;;;0.30;99.90;;;;;;5050770;28;20166;-86
2024/01/20 02:30:24;;;;;;;46.08;21.23;;;0.50;99.90;;;;;;5048248;28;20132;-85
2024/01/20 02:32:50;;;;;;;42.15;20.90;;;0.50;99.90;;;;;;5041698;28;20116;-85
2024/01/20 02:35:18;;;;;;;44.72;19.92;;;0.50;99.90;;;;;;5047008;28;20365;-85
2024/01/20 02:37:44;;;;;;;51.67;20.48;;;0.40;99.90;;;;;;5050124;28;20048;-84
2024/01/20 02:40:10;;;;;;;53.78;21.98;;;0.50;99.90;;;;;;5049735;28;20460;-85
2024/01/20 02:42:36;;;;;;;49.95;20.55;;;0.50;99.90;;;;;;5052918;28;20033;-84
2024/01/20 02:45:02;;;;;;;47.58;21.08;;;0.40;99.90;;;;;;5052247;28;20082;-85
2024/01/20 02:47:27;;;;;;;55.92;22.08;;;0.50;99.90;;;;;;5052598;28;20032;-85
2024/01/20 02:49:53;;;;;;;42.72;20.38;;;0.40;99.90;;;;;;5052838;28;20117;-85
2024/01/20 02:52:18;;;;;;;46.30;20.23;;;0.40;99.90;;;;;;5037164;28;20069;-85
2024/01/20 02:54:44;;;;;;;40.15;19.92;;;0.40;99.90;;;;;;5045321;28;20036;-85
2024/01/20 02:57:09;;;;;;;44.88;20.85;;;0.40;99.90;;;;;;5050563;28;20387;-85
2024/01/20 02:59:35;;;;;;;44.20;20.98;;;0.40;99.90;;;;;;5049168;28;20461;-85
2024/01/20 03:02:03;;;;;;;44.38;20.67;;;0.40;99.90;;;;;;5049331;28;20032;-85
2024/01/20 03:04:29;;;;;;;46.45;19.80;;;0.40;99.90;;;;;;5049935;28;20021;-85
2024/01/20 03:06:55;;;;;;;37.90;18.95;;;0.40;99.90;;;;;;5049942;28;20036;-86
2024/01/20 03:09:20;;;;;;;41.53;19.45;;;0.40;99.90;;;;;;5049884;28;20021;-85
2024/01/20 03:11:46;;;;;;;46.72;20.90;;;0.40;99.90;;;;;;5051703;28;20032;-86
2024/01/20 03:14:20;;;;;;;41.13;19.17;;;0.40;99.90;;;;;;5038274;28;20488;-86
2024/01/20 03:16:46;;;;;;;44.65;20.42;;;0.30;99.90;;;;;;5046946;28;20037;-85
2024/01/20 03:19:11;;;;;;;42.92;19.45;;;0.40;99.90;;;;;;5050976;28;20127;-86
2024/01/20 03:21:37;;;;;;;40.72;17.77;;;0.40;99.90;;;;;;5051373;28;20112;-86
2024/01/20 03:24:03;;;;;;;46.30;19.30;;;0.40;99.90;;;;;;5051028;28;20044;-85
2024/01/20 03:26:28;;;;;;;37.15;18.08;;;0.50;99.90;;;;;;5052134;28;20025;-86
2024/01/20 03:28:54;;;;;;;38.38;17.80;;;1.40;99.90;;;;;;5051051;28;20380;-86
2024/01/20 03:31:19;;;;;;;42.80;19.58;;;0.50;99.90;;;;;;5052006;28;20032;-87
2024/01/20 03:33:45;;;;;;;43.58;18.80;;;0.40;99.90;;;;;;5049634;28;20161;-86
2024/01/20 03:36:11;;;;;;;36.97;17.13;;;0.50;99.90;;;;;;5039519;28;20025;-86
2024/01/20 03:38:37;;;;;;;38.03;17.40;;;0.50;99.90;;;;;;5052057;28;20032;-87
2024/01/20 03:41:03;;;;;;;37.55;17.23;;;0.50;99.90;;;;;;5051720;28;20036;-86
2024/01/20 03:43:28;;;;;;;38.20;17.90;;;0.50;99.90;;;;;;5051822;28;20115;-86
2024/01/20 03:45:55;;;;;;;37.40;16.50;;;0.50;99.90;;;;;;5051533;28;20082;-86
2024/01/20 03:48:20;;;;;;;38.58;17.30;;;0.50;99.90;;;;;;5051371;28;20040;-86
2024/01/20 03:50:46;;;;;;;37.10;17.02;;;0.40;99.90;;;;;;5051536;28;20021;-86
2024/01/20 03:53:11;;;;;;;42.58;17.85;;;0.50;99.90;;;;;;5051808;28;20029;-86
2024/01/20 03:55:37;;;;;;;41.92;17.48;;;0.50;99.90;;;;;;5047358;28;20017;-86
2024/01/20 03:58:03;;;;;;;40.38;17.77;;;0.50;99.90;;;;;;5043156;28;20489;-86
2024/01/20 04:00:28;;;;;;;38.22;17.75;;;0.40;99.90;;;;;;5050619;28;20461;-87
2024/01/20 04:02:54;;;;;;;36.17;15.95;;;0.40;99.90;;;;;;5051606;28;20120;-86
2024/01/20 04:05:20;;;;;;;41.03;16.65;;;1.50;99.90;;;;;;5051828;28;20108;-87
2024/01/20 04:07:46;;;;;;;45.00;17.52;;;0.40;99.90;;;;;;5052191;28;20029;-87
2024/01/20 04:10:11;;;;;;;38.55;17.42;;;0.40;99.90;;;;;;5052091;28;20017;-87
2024/01/20 04:12:38;;;;;;;48.25;17.45;;;1.60;99.90;;;;;;5051890;28;20079;-85
2024/01/20 04:15:04;;;;;;;39.20;17.60;;;0.50;99.90;;;;;;5055855;28;20090;-86
2024/01/20 04:17:30;;;;;;;38.33;16.90;;;0.50;99.90;;;;;;5054833;28;20499;-85
2024/01/20 04:19:55;;;;;;;38.70;17.20;;;0.50;99.90;;;;;;5045427;28;20083;-86
2024/01/20 04:22:21;;;;;;;35.03;16.05;;;0.50;99.90;;;;;;5040802;28;20037;-86
2024/01/20 04:24:46;;;;;;;40.85;17.08;;;1.70;99.90;;;;;;5035376;28;20022;-85
2024/01/20 04:27:12;;;;;;;33.75;16.75;;;0.50;99.90;;;;;;5035738;28;20492;-85
2024/01/20 04:29:38;;;;;;;46.80;18.15;;;0.50;99.90;;;;;;5035527;28;20026;-85
2024/01/20 04:32:03;;;;;;;38.53;17.90;;;0.50;99.90;;;;;;5035308;28;20117;-86
2024/01/20 04:34:29;;;;;;;39.33;17.45;;;0.50;99.90;;;;;;5035264;28;20432;-87
2024/01/20 04:36:55;;;;;;;34.40;16.25;;;0.50;99.90;;;;;;5035353;28;20022;-85
2024/01/20 04:39:20;;;;;;;41.08;18.25;;;0.50;99.90;;;;;;5034954;28;20537;-85
2024/01/20 04:41:46;;;;;;;35.63;17.00;;;0.40;99.90;;;;;;5043296;28;20048;-85
2024/01/20 04:44:11;;;;;;;36.75;17.02;;;0.50;99.90;;;;;;5041433;28;20032;-85
2024/01/20 04:46:37;;;;;;;40.58;16.77;;;0.50;99.90;;;;;;5034782;28;20148;-85
2024/01/20 04:49:02;;;;;;;40.13;17.15;;;0.40;99.90;;;;;;5035395;28;20389;-85
2024/01/20 04:51:28;;;;;;;32.65;14.70;;;0.40;99.90;;;;;;5035329;28;20322;-86
2024/01/20 04:53:53;;;;;;;42.47;15.98;;;0.40;99.90;;;;;;5035080;28;20464;-85
2024/01/20 04:56:20;;;;;;;40.30;17.10;;;0.40;99.90;;;;;;5034988;28;20482;-86
2024/01/20 04:58:46;;;;;;;35.65;16.02;;;0.40;99.90;;;;;;5034436;28;20026;-86
2024/01/20 05:01:12;;;;;;;35.60;16.13;;;0.40;99.90;;;;;;5038168;28;20033;-87
2024/01/20 05:03:37;;;;;;;36.55;16.13;;;0.40;99.90;;;;;;5045763;28;20075;-87
2024/01/20 05:06:04;;;;;;;37.65;17.23;;;0.30;99.90;;;;;;5054967;28;20025;-85
2024/01/20 05:08:30;;;;;;;41.97;16.10;;;0.40;99.90;;;;;;5055224;28;20392;-86
2024/01/20 05:10:55;;;;;;;38.38;18.13;;;0.40;99.90;;;;;;5055941;28;20025;-85
2024/01/20 05:13:21;;;;;;;43.38;16.15;;;0.40;99.90;;;;;;5054912;28;20025;-85
2024/01/20 05:15:46;;;;;;;34.45;16.30;;;0.40;99.90;;;;;;5054574;28;20059;-86
2024/01/20 05:18:12;;;;;;;41.80;17.23;;;0.40;99.90;;;;;;5055088;28;20465;-86
2024/01/20 05:20:38;;;;;;;32.55;14.82;;;0.30;99.90;;;;;;5059234;28;20033;-87
2024/01/20 05:23:03;;;;;;;34.78;16.25;;;1.30;99.90;;;;;;5051060;28;20037;-84
2024/01/20 05:25:29;;;;;;;42.03;16.50;;;0.30;99.90;;;;;;5043173;28;20034;-85
2024/01/20 05:27:55;;;;;;;42.50;17.42;;;0.30;99.90;;;;;;5034242;28;20056;-86
2024/01/20 05:30:21;;;;;;;38.33;16.48;;;0.30;99.90;;;;;;5034048;28;20036;-85
2024/01/20 05:32:47;;;;;;;28.85;14.77;;;0.40;99.90;;;;;;5034411;28;20104;-86
2024/01/20 05:35:12;;;;;;;36.13;16.00;;;0.30;99.90;;;;;;5034487;28;20061;-85
2024/01/20 05:37:38;;;;;;;34.50;15.40;;;0.30;99.90;;;;;;5034143;28;20473;-85
2024/01/20 05:40:05;;;;;;;34.78;14.93;;;0.40;99.90;;;;;;5034360;28;20032;-85
2024/01/20 05:42:31;;;;;;;31.95;15.88;;;0.30;99.90;;;;;;5033507;28;20370;-85
2024/01/20 05:44:56;;;;;;;36.67;15.95;;;0.40;99.90;;;;;;5037140;28;20028;-85
2024/01/20 05:47:22;;;;;;;33.63;15.52;;;0.30;99.90;;;;;;5042605;28;20036;-85
2024/01/20 05:49:47;;;;;;;40.30;15.75;;;0.40;99.90;;;;;;5033707;28;20037;-85
2024/01/20 05:52:13;;;;;;;36.80;16.80;;;0.40;99.90;;;;;;5034077;28;20065;-84
2024/01/20 05:54:38;;;;;;;28.83;14.32;;;1.30;99.90;;;;;;5033102;28;20021;-84
2024/01/20 05:57:04;;;;;;;33.90;14.82;;;0.70;99.90;;;;;;5034094;28;20025;-85
2024/01/20 05:59:30;;;;;;;34.15;15.40;;;0.40;99.90;;;;;;5033695;28;20569;-85
2024/01/20 06:01:55;;;;;;;34.58;14.15;;;0.40;99.90;;;;;;5033384;28;20095;-85
2024/01/20 06:04:21;;;;;;;34.10;14.45;;;0.40;99.90;;;;;;5037224;28;20021;-85
2024/01/20 06:06:47;;;;;;;33.78;14.95;;;0.40;99.90;;;;;;5044670;28;20029;-86
2024/01/20 06:09:13;;;;;;;35.20;15.43;;;0.40;99.90;;;;;;5043878;28;20353;-87
2024/01/20 06:11:38;;;;;;;36.22;15.35;;;0.40;99.90;;;;;;5052325;28;20050;-86
2024/01/20 06:14:04;;;;;;;38.13;15.48;;;0.40;99.90;;;;;;5053715;28;20029;-85
2024/01/20 06:16:29;;;;;;;29.85;14.50;;;0.40;99.90;;;;;;5052811;28;20048;-84
2024/01/20 06:18:55;;;;;;;34.08;14.82;;;0.40;99.90;;;;;;5053190;28;20021;-85
2024/01/20 06:21:21;;;;;;;34.38;14.27;;;0.40;99.90;;;;;;5053765;28;20029;-85
2024/01/20 06:23:51;;;;;;;30.50;14.55;;;0.30;99.90;;;;;;5054080;28;20025;-86
2024/01/20 06:26:16;;;;;;;32.15;13.32;;;0.40;99.90;;;;;;5046645;28;20028;-84
2024/01/20 06:28:43;;;;;;;32.58;14.43;;;0.30;99.90;;;;;;5033342;28;20034;-86
2024/01/20 06:31:09;;;;;;;38.35;15.15;;;0.40;99.90;;;;;;5033077;28;20075;-86
2024/01/20 06:33:36;;;;;;;34.25;15.02;;;0.40;99.90;;;;;;5032819;28;20037;-85
2024/01/20 06:36:02;;;;;;;35.63;15.35;;;0.30;99.90;;;;;;5034790;28;20059;-87
2024/01/20 06:38:28;;;;;;;28.67;13.70;;;0.40;99.90;;;;;;5050307;28;20049;-87
2024/01/20 06:40:54;;;;;;;30.20;14.85;;;0.40;99.90;;;;;;5046135;28;20020;-87
2024/01/20 06:43:20;;;;;;;32.22;14.25;;;0.30;99.90;;;;;;5052962;28;20032;-86
2024/01/20 06:45:46;;;;;;;35.15;15.20;;;0.30;99.90;;;;;;5052794;28;20017;-87
2024/01/20 06:48:12;;;;;;;33.33;15.82;;;0.30;99.90;;;;;;5049755;28;20028;-86
2024/01/20 06:50:42;;;;;;;31.42;15.90;;;0.30;99.90;;;;;;5048128;28;20029;-86
2024/01/20 06:53:09;;;;;;;;;;;0.30;99.90;;;;;;5034881;28;20033;-86
2024/01/20 06:55:34;;;;;;;26.08;13.13;;;0.30;99.90;;;;;;5048981;28;20000;-87
2024/01/20 06:58:00;;;;;;;30.88;14.20;;;0.30;99.90;;;;;;5032883;28;20108;-85
2024/01/20 07:00:25;;;;;;;28.92;13.85;;;0.30;99.90;;;;;;5031713;28;20033;-87
2024/01/20 07:02:51;;;;;;;25.65;12.70;;;0.30;99.90;;;;;;5032752;28;20045;-87
2024/01/20 07:05:16;;;;;;;26.70;14.30;;;0.30;99.90;;;;;;5044809;28;20025;-86
2024/01/20 07:07:42;;;;;;;35.08;15.25;;;0.20;99.90;;;;;;5052042;28;20047;-83
2024/01/20 07:10:08;;;;;;;28.50;14.20;;;0.20;99.90;;;;;;5039662;28;20033;-85
2024/01/20 07:12:34;;;;;;;33.15;14.70;;;0.30;99.90;;;;;;5044130;28;20034;-85
2024/01/20 07:15:00;;;;;;;32.05;13.45;;;0.30;99.90;;;;;;5032349;28;20037;-85
2024/01/20 07:17:25;;;;;;;31.10;16.00;;;0.30;99.90;;;;;;5043607;28;20033;-85
2024/01/20 07:19:51;;;;;;;34.05;15.10;;;0.30;99.90;;;;;;5051913;28;20040;-87
2024/01/20 07:22:16;;;;;;;37.50;15.70;;;0.30;99.90;;;;;;5051753;28;20122;-86
2024/01/20 07:24:42;;;;;;;27.23;13.82;;;0.30;99.90;;;;;;5051841;28;20033;-87
2024/01/20 07:27:07;;;;;;;31.58;15.02;;;0.30;99.90;;;;;;5051783;28;20020;-86
2024/01/20 07:29:33;;;;;;;28.83;15.27;;;0.30;99.90;;;;;;5051911;28;20025;-87
2024/01/20 07:31:58;;;;;;;28.83;14.55;;;0.30;99.90;;;;;;5052068;28;20514;-87
2024/01/20 07:34:36;;;;;;;31.02;15.45;;;1.40;99.90;;;;;;5051575;28;20025;-86
2024/01/20 07:37:02;;;;;;;31.25;14.60;;;0.20;99.90;;;;;;5051994;28;20108;-85
2024/01/20 07:39:27;;;;;;;31.15;15.40;;;1.20;99.90;;;;;;5041598;28;20109;-87
2024/01/20 07:41:53;;;;;;;32.88;15.35;;;0.30;99.90;;;;;;5043316;28;20037;-85
2024/01/20 07:44:19;;;;;;;34.60;15.93;;;0.10;99.90;;;;;;5051932;28;20025;-85
2024/01/20 07:46:44;;;;;;;36.30;15.95;;;0.20;99.90;;;;;;5051068;28;20537;-86
2024/01/20 07:49:10;;;;;;;32.67;16.17;;;0.20;99.90;;;;;;5050928;28;20021;-86
2024/01/20 07:51:35;;;;;;;33.53;15.40;;;0.20;99.90;;;;;;5040199;28;20028;-86
2024/01/20 07:54:01;;;;;;;31.35;15.50;;;1.00;99.90;;;;;;5031015;28;20370;-86
2024/01/20 07:56:27;;;;;;;38.35;15.95;;;0.20;99.90;;;;;;5031795;28;20047;-86
2024/01/20 07:58:52;;;;;;;38.78;17.35;;;0.30;99.90;;;;;;5031733;28;20113;-87
2024/01/20 08:01:18;;;;;;;35.05;17.65;;;0.20;99.90;;;;;;5045348;28;20033;-89
2024/01/20 08:03:49;;;;;;;38.55;16.80;;;0.30;99.90;;;;;;5051868;28;20029;-90
2024/01/20 08:06:27;;;;;;;35.70;16.85;;;0.20;99.90;;;;;;5052626;28;20025;-91
2024/01/20 08:09:11;;;;;;;36.83;17.95;;;0.10;99.90;;;;;;5049913;28;20021;-90
2024/01/20 08:11:37;;;;;;;34.35;17.50;;;1.20;99.90;;;;;;5052361;28;20044;-90
2024/01/20 08:14:06;;;;;;;38.08;17.13;;;0.20;99.90;;;;;;5052359;28;20383;-90
2024/01/20 08:16:31;;;;;;;37.60;16.88;;;0.10;99.90;;;;;;5051831;28;20024;-90
2024/01/20 08:18:57;;;;;;;37.95;16.75;;;0.20;99.90;;;;;;5052590;28;20116;-90
2024/01/20 08:21:23;;;;;;;39.50;16.83;;;0.30;99.90;;;;;;5048499;28;20032;-88
2024/01/20 08:23:49;;;;;;;40.40;19.00;;;0.30;99.90;;;;;;5051762;28;20049;-90
2024/01/20 08:26:14;;;;;;;43.30;18.73;;;0.30;99.90;;;;;;5052453;28;20060;-90
2024/01/20 08:28:40;;;;;;;37.95;17.85;;;0.30;99.90;;;;;;5055339;28;20025;-88
2024/01/20 08:31:06;;;;;;;33.53;16.83;;;0.30;99.90;;;;;;5060220;28;20105;-88
2024/01/20 08:33:31;;;;;;;37.45;17.15;;;0.30;99.90;;;;;;5057119;28;20469;-88
2024/01/20 08:35:57;;;;;;;35.88;16.77;;;0.30;99.90;;;;;;5053176;28;20108;-89
2024/01/20 08:38:22;;;;;;;37.38;17.35;;;0.30;99.90;;;;;;5051904;28;20025;-90
2024/01/20 08:40:48;;;;;;;38.35;17.85;;;0.40;99.90;;;;;;5048659;28;20086;-88
2024/01/20 08:43:15;;;;;;;31.33;15.55;;;0.30;99.90;;;;;;5052078;28;20039;-89
2024/01/20 08:45:41;;;;;;;35.53;16.67;;;0.30;99.90;;;;;;5038778;28;20030;-90
2024/01/20 08:48:07;;;;;;;39.78;17.10;;;0.30;99.90;;;;;;5033050;28;20029;-90
2024/01/20 08:50:33;;;;;;;39.13;17.02;;;0.20;99.90;;;;;;5032747;28;20108;-89
2024/01/20 08:52:58;;;;;;;41.53;17.67;;;0.20;99.90;;;;;;5033187;28;20057;-89
2024/01/20 08:55:24;;;;;;;37.90;17.00;;;0.20;99.90;;;;;;5044843;28;20025;-89
2024/01/20 08:57:49;;;;;;;40.50;16.80;;;0.30;99.90;;;;;;5051748;28;20491;-89
2024/01/20 09:00:16;;;;;;;39.28;17.63;;;0.20;99.90;;;;;;5058719;28;20060;-89
2024/01/20 09:02:43;;;;;;;42.28;17.88;;;0.30;99.90;;;;;;5054665;28;20045;-90
2024/01/20 09:05:08;;;;;;;36.97;17.17;;;0.30;99.90;;;;;;5055363;28;20029;-89
2024/01/20 09:07:34;;;;;;;39.08;18.00;;;0.30;99.90;;;;;;5055305;28;20028;-89
2024/01/20 09:10:02;;;;;;;41.15;18.60;;;0.40;99.90;;;;;;5056468;28;20024;-90
2024/01/20 09:12:28;;;;;;;37.58;18.02;;;0.40;99.90;;;;;;5060392;28;20032;-88
2024/01/20 09:14:55;;;;;;;41.47;18.23;;;0.40;99.90;;;;;;5072557;28;20477;-85
2024/01/20 09:17:20;;;;;;;42.30;19.75;;;0.40;99.90;;;;;;5063891;28;20049;-89
2024/01/20 09:19:46;;;;;;;35.15;16.40;;;0.50;99.90;;;;;;5058067;28;20041;-86
2024/01/20 09:22:11;;;;;;;35.78;17.33;;;0.50;99.90;;;;;;5061176;28;20469;-85
2024/01/20 09:24:37;;;;;;;38.20;17.77;;;0.50;99.90;;;;;;5072558;28;20036;-86
2024/01/20 09:27:03;;;;;;;32.53;15.82;;;0.50;99.90;;;;;;5066998;28;20064;-87
2024/01/20 09:29:28;;;;;;;41.80;16.42;;;0.60;99.90;;;;;;5055035;28;20092;-87
2024/01/20 09:31:54;;;;;;;34.70;17.00;;;0.60;99.90;;;;;;5054745;28;20461;-86
2024/01/20 09:34:20;;;;;;;38.42;15.98;;;0.60;99.90;;;;;;5043373;28;20121;-87
2024/01/20 09:36:45;;;;;;;31.80;15.40;;;0.60;99.90;;;;;;5038122;28;20021;-87
2024/01/20 09:39:12;;;;;;;37.13;16.50;;;0.60;99.90;;;;;;5034611;28;20018;-85
2024/01/20 09:41:39;;;;;;;30.75;15.30;;;0.60;99.90;;;;;;5050585;28;20111;-89
2024/01/20 09:44:06;;;;;;;31.88;16.02;;;0.60;99.90;;;;;;5055660;28;20029;-88
2024/01/20 09:46:32;;;;;;;32.22;15.90;;;0.70;99.90;;;;;;5052617;28;20028;-88
2024/01/20 09:49:00;;;;;;;33.08;17.05;;;0.70;99.90;;;;;;5038907;28;20033;-84
2024/01/20 09:51:28;;;;;;;32.88;16.23;;;0.80;99.90;;;;;;5040492;28;20030;-84
2024/01/20 09:53:58;;;;;;;34.22;16.08;;;0.80;99.90;;;;;;5041896;28;20086;-85
2024/01/20 09:56:24;;;;;;;;;;;0.80;99.90;;;;;;5054886;28;20083;-86
2024/01/20 09:58:53;;;;;;;31.60;14.93;;;0.80;99.90;;;;;;5049106;28;20269;-88
2024/01/20 10:01:20;;;;;;;34.75;15.75;;;0.80;99.90;;;;;;5034521;28;20045;-89
2024/01/20 10:03:47;;;;;;;35.08;16.20;;;0.90;99.90;;;;;;5034673;28;20035;-84
2024/01/20 10:06:13;;;;;;;30.83;15.55;;;0.90;99.90;;;;;;5035376;28;20544;-89
2024/01/20 10:08:38;;;;;;;34.15;15.45;;;1.70;99.90;;;;;;5017047;28;20049;-90
2024/01/20 10:11:04;;;;;;;30.55;16.88;;;0.90;99.90;;;;;;5042034;28;20063;-90
2024/01/20 10:13:30;;;;;;;33.58;14.90;;;1.10;99.90;;;;;;5039809;28;20038;-89
2024/01/20 10:15:58;;;;;;;36.90;15.05;;;0.90;99.90;;;;;;5049265;28;20074;-88
2024/01/20 10:18:23;;;;;;;29.38;14.07;;;0.90;99.90;;;;;;5036770;28;20044;-89
2024/01/20 10:21:03;;;;;;;32.70;15.23;;;1.00;99.90;;;;;;5054468;28;20021;-89
2024/01/20 10:23:29;;;;;;;22.88;11.57;;;1.00;99.90;;;;;;5052339;28;20420;-85
2024/01/20 10:26:05;;;;;;;31.35;15.55;;;1.00;99.90;;;;;;5051932;28;20472;-89
2024/01/20 10:28:33;;;;;;;26.65;14.27;;;1.00;99.90;;;;;;5051232;28;20041;-90
2024/01/20 10:31:09;;;;;;;29.10;15.70;;;1.80;99.90;;;;;;5052158;28;20029;-90
2024/01/20 10:33:35;;;;;;;30.98;14.27;;;1.60;99.90;;;;;;5052611;28;20017;-89
2024/01/20 10:36:03;;;;;;;29.85;14.73;;;1.00;99.90;;;;;;5059323;28;20017;-89
2024/01/20 10:38:30;;;;;;;29.83;15.05;;;1.70;99.90;;;;;;5064823;28;20025;-90
2024/01/20 10:40:57;;;;;;;29.40;15.13;;;2.20;99.90;;;;;;5053028;28;20017;-88
2024/01/20 10:43:26;;;;;;;34.75;16.90;;;1.70;99.90;;;;;;5049857;28;20033;-86
2024/01/20 10:46:01;;;;;;;32.03;14.18;;;1.20;99.90;;;;;;5048969;28;20013;-88
2024/01/20 10:48:34;;;;;;;25.92;15.15;;;2.20;99.90;;;;;;5047903;28;20028;-87
2024/01/20 10:51:03;;;;;;;29.92;15.13;;;2.10;99.90;;;;;;5050042;28;20017;-87
2024/01/20 10:53:29;;;;;;;29.88;16.73;;;1.20;99.90;;;;;;5050861;28;20036;-88
2024/01/20 10:55:55;;;;;;;26.45;15.13;;;1.20;99.90;;;;;;5051833;28;20078;-85
2024/01/20 10:58:43;;;;;;;30.45;17.55;;;1.20;99.90;;;;;;5051685;28;20025;-91
2024/01/20 11:01:11;;;;;;;34.40;16.88;;;1.30;99.90;;;;;;5052736;28;20063;-91
2024/01/20 11:03:37;;;;;;;30.13;16.48;;;1.30;99.90;;;;;;5051475;28;20112;-89
2024/01/20 11:06:03;;;;;;;32.03;16.35;;;1.40;99.90;;;;;;5052818;28;20650;-92
2024/01/20 11:08:51;;;;;;;35.97;18.40;;;0.50;99.90;;;;;;5052865;28;20547;-89
2024/01/20 11:11:25;;;;;;;32.58;18.35;;;1.40;99.90;;;;;;5048461;28;20362;-88
2024/01/20 11:13:51;;;;;;;34.47;17.63;;;1.40;99.90;;;;;;5047065;28;20103;-89
2024/01/20 11:16:21;;;;;;;33.67;18.25;;;1.40;99.90;;;;;;5050939;28;20124;-87
2024/01/20 11:18:48;;;;;;;32.85;17.50;;;1.50;99.90;;;;;;5048851;28;20100;-88
2024/01/20 11:21:28;;;;;;;31.17;15.48;;;1.50;99.90;;;;;;5053058;28;20396;-91
2024/01/20 11:24:07;;;;;;;32.67;16.93;;;2.50;99.90;;;;;;5047941;28;20484;-88
2024/01/20 11:26:38;;;;;;;30.60;17.63;;;1.50;99.90;;;;;;5045201;28;20049;-89
2024/01/20 11:29:13;;;;;;;31.95;16.38;;;1.50;99.90;;;;;;5033038;28;20038;-92
2024/01/20 11:31:46;;;;;;;33.17;17.30;;;1.50;99.90;;;;;;5033570;28;20022;-89
2024/01/20 11:34:12;;;;;;;29.70;15.82;;;1.50;99.90;;;;;;5033336;28;20030;-89
2024/01/20 11:36:38;;;;;;;28.83;16.20;;;1.50;99.90;;;;;;5032033;28;20461;-89
2024/01/20 11:39:05;;;;;;;31.35;17.20;;;1.60;99.90;;;;;;5032313;28;20030;-90
2024/01/20 11:41:30;;;;;;;28.92;15.25;;;1.50;99.90;;;;;;5046642;28;20099;-89
2024/01/20 11:44:19;;;;;;;31.83;16.45;;;1.50;99.90;;;;;;5054767;28;20009;-91
2024/01/20 11:46:44;;;;;;;25.52;14.93;;;1.60;99.90;;;;;;5031757;28;20037;-91
2024/01/20 11:49:16;;;;;;;34.83;17.13;;;1.50;99.90;;;;;;5037141;28;20071;-87
2024/01/20 11:51:42;;;;;;;28.88;15.02;;;3.00;99.90;;;;;;5050038;28;20025;-88
2024/01/20 11:54:07;;;;;;;26.38;15.48;;;2.00;99.90;;;;;;5053609;28;20425;-88
2024/01/20 11:56:33;;;;;;;31.92;17.15;;;2.70;99.90;;;;;;5036552;28;20026;-87
2024/01/20 11:58:58;;;;;;;29.65;17.27;;;1.70;99.90;;;;;;5036417;28;20026;-90
2024/01/20 12:01:24;;;;;;;31.60;16.73;;;2.00;99.90;;;;;;5048466;28;20076;-90
2024/01/20 12:03:50;;;;;;;34.08;16.67;;;1.70;99.90;;;;;;5053671;28;20477;-91
2024/01/20 12:06:15;;;;;;;31.58;18.13;;;1.70;99.90;;;;;;5053553;28;20047;-91
2024/01/20 12:08:42;;;;;;;30.75;17.15;;;1.70;99.90;;;;;;5049769;28;20041;-91
2024/01/20 12:11:07;;;;;;;30.20;16.42;;;1.80;99.90;;;;;;5041790;28;20107;-91
2024/01/20 12:13:35;;;;;;;29.52;16.45;;;1.80;99.90;;;;;;5033543;28;20052;-90
2024/01/20 12:16:03;;;;;;;28.92;17.98;;;1.80;99.90;;;;;;5033247;28;20025;-89
2024/01/20 12:18:28;;;;;;;29.55;16.65;;;1.80;99.90;;;;;;5032244;28;20489;-86
2024/01/20 12:20:54;;;;;;;34.42;17.75;;;1.80;99.90;;;;;;5043996;28;20064;-87
2024/01/20 12:23:20;;;;;;;33.67;18.50;;;1.80;99.90;;;;;;5052165;28;20108;-90
2024/01/20 12:25:47;;;;;;;35.33;19.55;;;1.80;99.90;;;;;;5049992;28;20366;-92
2024/01/20 12:28:12;;;;;;;38.28;20.45;;;1.90;99.90;;;;;;5033419;28;20026;-91
2024/01/20 12:30:38;;;;;;;37.80;20.55;;;2.00;99.90;;;;;;5041878;28;20028;-91
2024/01/20 12:33:03;;;;;;;42.42;21.65;;;1.90;99.90;;;;;;5038149;28;20025;-91
2024/01/20 12:35:38;;;;;;;35.58;19.50;;;2.00;99.90;;;;;;5039789;28;20036;-91